Time;durP1;ratioP1;P1;durP2;ratioP2;P2;SDS_P1;SDS_P2;PMS_P1;PMS_P2;Temp;Humidity;BMP_temperature;BMP_pressure;BME280_temperature;BME280_humidity;BME280_pressure;Samples;Min_cycle;Max_cycle;Signal;HPM_P1;HPM_P2
2023/01/14 00:02:25;;;;;;;26.13;3.95;;;7.80;99.90;;;;;;5074340;28;20217;-45
2023/01/14 00:04:50;;;;;;;28.77;4.90;;;7.80;99.90;;;;;;5074404;28;20174;-44
2023/01/14 00:07:16;;;;;;;19.67;4.15;;;7.80;99.90;;;;;;5074782;28;20173;-44
2023/01/14 00:09:42;;;;;;;21.23;4.38;;;7.70;99.90;;;;;;5074783;28;20177;-44
2023/01/14 00:12:08;;;;;;;30.30;4.15;;;7.70;99.90;;;;;;5074192;28;20205;-45
2023/01/14 00:14:33;;;;;;;29.50;4.10;;;7.80;99.90;;;;;;5074326;28;20532;-44
2023/01/14 00:17:00;;;;;;;24.08;4.68;;;7.80;99.90;;;;;;5074249;28;20177;-44
2023/01/14 00:19:27;;;;;;;19.63;4.43;;;7.80;99.90;;;;;;5074388;28;20166;-44
2023/01/14 00:21:55;;;;;;;26.90;4.43;;;7.80;99.90;;;;;;5074329;28;20170;-44
2023/01/14 00:24:21;;;;;;;21.23;4.72;;;7.80;99.90;;;;;;5073988;28;20710;-43
2023/01/14 00:26:53;;;;;;;17.67;3.55;;;7.70;99.90;;;;;;5073250;28;20269;-43
2023/01/14 00:29:38;;;;;;;15.65;3.45;;;7.70;99.90;;;;;;5072831;28;20202;-44
2023/01/14 00:32:04;;;;;;;13.20;2.85;;;7.70;99.90;;;;;;5073892;28;20665;-43
2023/01/14 00:34:32;;;;;;;20.80;3.60;;;7.60;99.90;;;;;;5074171;28;20170;-43
2023/01/14 00:36:58;;;;;;;16.15;3.55;;;7.60;99.90;;;;;;5073864;28;20162;-43
2023/01/14 00:39:24;;;;;;;25.10;4.03;;;7.60;99.90;;;;;;5073718;28;20206;-43
2023/01/14 00:41:50;;;;;;;15.52;3.28;;;7.60;99.90;;;;;;5073980;28;20213;-43
2023/01/14 00:44:17;;;;;;;20.50;4.03;;;7.70;99.90;;;;;;5074031;28;20166;-43
2023/01/14 00:46:43;;;;;;;17.00;3.35;;;7.60;99.90;;;;;;5073963;28;20253;-43
2023/01/14 00:49:16;;;;;;;12.98;3.88;;;7.60;99.90;;;;;;5073593;28;20250;-43
2023/01/14 00:51:42;;;;;;;23.92;4.43;;;7.60;99.90;;;;;;5072679;28;20296;-43
2023/01/14 00:54:07;;;;;;;17.92;4.28;;;7.60;99.90;;;;;;5073481;28;20683;-43
2023/01/14 00:56:33;;;;;;;20.70;3.83;;;7.60;99.90;;;;;;5073466;28;20170;-43
2023/01/14 00:58:59;;;;;;;26.23;4.75;;;7.50;99.90;;;;;;5073336;28;20669;-43
2023/01/14 01:01:25;;;;;;;23.13;3.60;;;7.50;99.90;;;;;;5073357;28;20166;-43
2023/01/14 01:03:54;;;;;;;14.02;3.10;;;7.60;99.90;;;;;;5072865;28;20225;-44
2023/01/14 01:06:23;;;;;;;17.23;3.55;;;7.60;99.90;;;;;;5073206;28;20162;-43
2023/01/14 01:08:49;;;;;;;16.92;3.35;;;7.60;99.90;;;;;;5073196;28;20169;-43
2023/01/14 01:11:16;;;;;;;21.08;3.80;;;7.70;99.90;;;;;;5072156;28;20197;-43
2023/01/14 01:13:43;;;;;;;17.50;3.67;;;7.70;99.90;;;;;;5073327;28;20166;-43
2023/01/14 01:16:16;;;;;;;20.70;5.80;;;7.70;99.90;;;;;;5073060;28;20634;-44
2023/01/14 01:18:43;;;;;;;17.73;4.68;;;7.70;99.90;;;;;;5073351;28;20166;-44
2023/01/14 01:21:12;;;;;;;24.15;4.32;;;7.70;99.90;;;;;;5073023;28;20174;-44
2023/01/14 01:23:40;;;;;;;21.58;3.72;;;7.70;99.90;;;;;;5072799;28;20173;-44
2023/01/14 01:26:09;;;;;;;17.15;3.30;;;7.70;99.90;;;;;;5072809;28;20169;-44
2023/01/14 01:28:35;;;;;;;16.63;3.75;;;7.80;99.90;;;;;;5072804;28;20177;-45
2023/01/14 01:31:07;;;;;;;19.05;5.22;;;7.80;99.90;;;;;;5072631;28;20197;-43
2023/01/14 01:33:33;;;;;;;25.58;4.18;;;7.80;99.90;;;;;;5072589;28;20169;-43
2023/01/14 01:36:05;;;;;;;13.68;3.53;;;7.90;99.90;;;;;;5072609;28;20249;-43
2023/01/14 01:38:31;;;;;;;28.35;3.72;;;7.90;99.90;;;;;;5072535;28;20181;-44
2023/01/14 01:40:57;;;;;;;19.55;4.65;;;7.90;99.90;;;;;;5072207;28;20740;-43
2023/01/14 01:43:26;;;;;;;20.08;3.90;;;7.90;99.90;;;;;;5072608;28;20166;-44
2023/01/14 01:45:52;;;;;;;17.33;4.00;;;7.90;99.90;;;;;;5072459;28;20162;-44
2023/01/14 01:48:35;;;;;;;20.02;4.35;;;7.90;99.90;;;;;;5072393;28;20162;-43
2023/01/14 01:51:14;;;;;;;19.67;4.43;;;7.90;99.90;;;;;;5072207;28;20198;-44
2023/01/14 01:53:42;;;;;;;24.58;4.18;;;8.00;99.90;;;;;;5072359;28;20170;-44
2023/01/14 01:56:13;;;;;;;17.60;3.60;;;8.00;99.90;;;;;;5072298;28;20174;-44
2023/01/14 01:58:39;;;;;;;15.85;4.40;;;8.00;99.90;;;;;;5070962;28;20189;-44
2023/01/14 02:01:04;;;;;;;17.95;4.30;;;8.00;99.90;;;;;;5072237;28;20527;-44
2023/01/14 02:03:36;;;;;;;26.33;5.25;;;7.90;99.90;;;;;;5072003;28;20222;-43
2023/01/14 02:06:02;;;;;;;16.55;3.55;;;8.00;99.90;;;;;;5072057;28;20168;-44
2023/01/14 02:08:28;;;;;;;16.73;3.88;;;8.00;99.90;;;;;;5072289;28;20177;-44
2023/01/14 02:11:09;;;;;;;22.35;3.75;;;7.90;99.90;;;;;;5070645;28;20198;-44
2023/01/14 02:13:53;;;;;;;25.50;3.55;;;7.90;99.90;;;;;;5071984;28;20568;-44
2023/01/14 02:16:46;;;;;;;21.95;3.35;;;8.00;99.90;;;;;;5071987;28;20189;-44
2023/01/14 02:19:23;;;;;;;31.85;4.35;;;7.90;99.90;;;;;;5072572;28;20589;-44
2023/01/14 02:22:33;;;;;;;19.70;3.20;;;7.90;99.90;;;;;;5071928;28;20222;-44
2023/01/14 02:25:17;;;;;;;29.20;4.15;;;7.90;99.90;;;;;;5040915;28;20539;-44
2023/01/14 02:27:53;;;;;;;17.13;2.72;;;7.80;99.90;;;;;;5072200;28;20170;-44
2023/01/14 02:30:36;;;;;;;21.15;4.55;;;7.80;99.90;;;;;;5071750;28;20693;-44
2023/01/14 02:33:30;;;;;;;17.73;3.25;;;7.80;99.90;;;;;;5071704;28;20260;-44
2023/01/14 02:36:00;;;;;;;18.90;3.72;;;7.70;99.90;;;;;;5070425;28;20219;-44
2023/01/14 02:38:59;;;;;;;12.13;2.80;;;7.70;99.90;;;;;;5071853;28;20689;-45
2023/01/14 02:44:23;;;;;;;19.33;3.83;;;7.60;99.90;;;;;;5071959;28;20224;-43
2023/01/14 02:46:50;;;;;;;23.55;4.50;;;7.60;99.90;;;;;;5071690;28;20264;-43
2023/01/14 02:49:23;;;;;;;21.50;4.38;;;7.60;99.90;;;;;;5072043;28;20190;-44
2023/01/14 02:51:49;;;;;;;17.52;3.90;;;7.50;99.90;;;;;;5071525;28;20206;-43
2023/01/14 02:54:18;;;;;;;13.73;3.00;;;7.50;99.90;;;;;;5075667;28;20177;-43
2023/01/14 02:56:46;;;;;;;17.40;3.65;;;7.50;99.90;;;;;;5076102;28;20249;-44
2023/01/14 02:59:24;;;;;;;11.18;3.63;;;7.50;99.90;;;;;;5075964;28;20198;-43
2023/01/14 03:02:01;;;;;;;14.65;3.55;;;7.40;99.90;;;;;;5075445;28;20641;-43
2023/01/14 03:05:04;;;;;;;15.95;3.13;;;7.40;99.90;;;;;;5075651;28;20211;-43
2023/01/14 03:07:48;;;;;;;19.42;3.53;;;7.40;99.90;;;;;;5075551;28;20180;-43
2023/01/14 03:10:34;;;;;;;15.60;3.35;;;7.30;99.90;;;;;;5076038;28;20534;-43
2023/01/14 03:13:22;;;;;;;18.17;3.72;;;7.30;99.90;;;;;;5075321;28;20268;-43
2023/01/14 03:15:57;;;;;;;16.27;2.88;;;7.30;99.90;;;;;;5075574;28;20249;-44
2023/01/14 03:18:52;;;;;;;23.10;3.88;;;7.30;99.90;;;;;;5075240;28;20161;-44
2023/01/14 03:21:22;;;;;;;15.25;3.42;;;7.20;99.90;;;;;;5075183;28;20622;-43
2023/01/14 03:24:13;;;;;;;23.90;3.78;;;7.20;99.90;;;;;;5075254;28;20166;-43
2023/01/14 03:26:41;;;;;;;20.50;3.20;;;7.20;99.90;;;;;;5075063;28;20208;-43
2023/01/14 03:29:12;;;;;;;14.93;4.07;;;7.20;99.90;;;;;;5075059;28;20173;-43
2023/01/14 03:31:43;;;;;;;23.00;4.95;;;7.30;99.90;;;;;;5074972;28;20209;-43
2023/01/14 03:34:14;;;;;;;13.07;3.60;;;7.30;99.90;;;;;;5075088;28;20257;-44
2023/01/14 03:36:42;;;;;;;27.08;5.70;;;7.30;99.90;;;;;;5074891;28;20573;-43
2023/01/14 03:39:19;;;;;;;30.80;5.35;;;7.30;99.90;;;;;;5074870;28;20622;-44
2023/01/14 03:44:45;;;;;;;27.25;4.97;;;7.30;99.90;;;;;;5075054;28;20223;-43
2023/01/14 03:47:11;;;;;;;33.28;6.60;;;7.30;99.90;;;;;;5075112;28;20197;-43
2023/01/14 03:49:37;;;;;;;19.85;4.47;;;7.30;99.90;;;;;;5074702;28;20212;-43
2023/01/14 03:52:09;;;;;;;24.80;5.22;;;7.30;99.90;;;;;;5074706;28;20202;-43
2023/01/14 03:54:59;;;;;;;20.73;5.32;;;7.30;99.90;;;;;;5074577;28;20647;-44
2023/01/14 03:57:56;;;;;;;31.30;9.00;;;7.20;99.90;;;;;;5074506;28;20165;-43
2023/01/14 04:00:32;;;;;;;21.67;4.60;;;7.30;99.90;;;;;;5074493;28;20189;-43
2023/01/14 04:03:01;;;;;;;25.45;5.22;;;7.20;99.90;;;;;;5074194;28;20244;-43
2023/01/14 04:05:27;;;;;;;17.45;4.15;;;7.30;99.90;;;;;;5073086;28;20224;-43
2023/01/14 04:07:56;;;;;;;19.95;4.57;;;7.30;99.90;;;;;;5074434;28;20162;-43
2023/01/14 04:10:21;;;;;;;16.42;3.88;;;7.30;99.90;;;;;;5074401;28;20180;-43
2023/01/14 04:15:31;;;;;;;15.15;3.80;;;7.30;99.90;;;;;;5074316;28;20215;-44
2023/01/14 04:17:56;;;;;;;17.23;3.85;;;7.40;99.90;;;;;;5074199;28;20170;-43
2023/01/14 04:20:22;;;;;;;21.98;4.68;;;7.30;99.90;;;;;;5074199;28;20168;-43
2023/01/14 04:22:47;;;;;;;25.60;5.25;;;7.40;99.90;;;;;;5074148;28;20167;-43
2023/01/14 04:25:13;;;;;;;14.90;3.72;;;7.40;99.90;;;;;;5074459;28;20201;-44
2023/01/14 04:27:39;;;;;;;25.50;4.90;;;7.30;99.90;;;;;;5074295;28;20198;-43
2023/01/14 04:30:05;;;;;;;14.68;4.07;;;7.30;99.90;;;;;;5073970;28;20197;-43
2023/01/14 04:32:31;;;;;;;19.95;3.03;;;7.30;99.90;;;;;;5073764;28;20213;-43
2023/01/14 04:34:56;;;;;;;18.88;3.15;;;7.30;99.90;;;;;;5073825;28;20526;-43
2023/01/14 04:37:22;;;;;;;19.02;3.33;;;7.20;99.90;;;;;;5073832;28;20640;-43
2023/01/14 04:39:47;;;;;;;16.20;2.97;;;7.10;99.90;;;;;;5073724;28;20213;-43
2023/01/14 04:42:28;;;;;;;21.50;3.63;;;7.10;99.90;;;;;;5074067;28;20181;-43
2023/01/14 04:44:59;;;;;;;15.02;2.70;;;7.10;99.90;;;;;;5074024;28;20170;-43
2023/01/14 04:47:25;;;;;;;18.60;5.13;;;7.10;99.90;;;;;;5073744;28;20170;-43
2023/01/14 04:49:51;;;;;;;20.33;3.40;;;7.00;99.90;;;;;;5073404;28;20166;-43
2023/01/14 04:52:16;;;;;;;17.95;3.42;;;7.10;99.90;;;;;;5073451;28;20233;-43
2023/01/14 04:54:42;;;;;;;16.90;3.35;;;7.10;99.90;;;;;;5073835;28;20204;-43
2023/01/14 04:57:08;;;;;;;16.05;2.70;;;7.10;99.90;;;;;;5073490;28;20216;-43
2023/01/14 04:59:34;;;;;;;15.68;3.97;;;7.00;99.90;;;;;;5073438;28;20158;-43
2023/01/14 05:02:00;;;;;;;16.13;3.40;;;7.00;99.90;;;;;;5073133;28;20174;-44
2023/01/14 05:04:26;;;;;;;15.43;2.90;;;7.00;99.90;;;;;;5073286;28;20250;-43
2023/01/14 05:06:52;;;;;;;13.43;3.55;;;7.00;99.90;;;;;;5073450;28;20201;-43
2023/01/14 05:09:18;;;;;;;10.25;2.70;;;6.90;99.90;;;;;;5073150;28;20162;-43
2023/01/14 05:11:43;;;;;;;12.18;2.97;;;6.90;99.90;;;;;;5073442;28;20209;-43
2023/01/14 05:14:09;;;;;;;15.88;3.05;;;6.90;99.90;;;;;;5073165;28;20198;-44
2023/01/14 05:16:35;;;;;;;14.13;3.53;;;6.80;99.90;;;;;;5072588;28;20568;-44
2023/01/14 05:19:00;;;;;;;17.58;3.95;;;6.80;99.90;;;;;;5073053;28;20158;-43
2023/01/14 05:21:26;;;;;;;21.67;3.97;;;6.80;99.90;;;;;;5072940;28;20523;-44
2023/01/14 05:23:51;;;;;;;17.55;3.35;;;6.80;99.90;;;;;;5072913;28;20574;-43
2023/01/14 05:26:17;;;;;;;18.77;2.97;;;6.80;99.90;;;;;;5072793;28;20545;-43
2023/01/14 05:28:43;;;;;;;12.05;2.50;;;6.80;99.90;;;;;;5073193;28;20197;-43
2023/01/14 05:31:09;;;;;;;17.00;4.22;;;6.80;99.90;;;;;;5072629;28;20198;-43
2023/01/14 05:33:34;;;;;;;12.88;2.90;;;6.90;99.90;;;;;;5072643;28;20174;-43
2023/01/14 05:36:01;;;;;;;16.17;2.85;;;6.80;99.90;;;;;;5072922;28;20268;-43
2023/01/14 05:38:27;;;;;;;20.08;3.00;;;6.80;99.90;;;;;;5072599;28;20640;-43
2023/01/14 05:40:53;;;;;;;18.92;3.17;;;6.80;99.90;;;;;;5072895;28;20521;-43
2023/01/14 05:46:06;;;;;;;13.60;3.10;;;6.80;99.90;;;;;;5072710;28;20185;-43
2023/01/14 05:48:32;;;;;;;14.77;3.78;;;6.90;99.90;;;;;;5072727;28;20177;-43
2023/01/14 05:50:59;;;;;;;13.10;3.33;;;6.90;99.90;;;;;;5072276;28;20554;-43
2023/01/14 05:53:27;;;;;;;19.63;3.83;;;6.90;99.90;;;;;;5072369;28;20648;-43
2023/01/14 05:55:53;;;;;;;16.88;4.07;;;6.90;99.90;;;;;;5072238;28;20629;-43
2023/01/14 05:58:19;;;;;;;14.45;3.78;;;6.90;99.90;;;;;;5072232;28;20173;-44
2023/01/14 06:06:33;;;;;;;17.63;3.58;;;7.00;99.90;;;;;;5072694;28;20200;-43
2023/01/14 06:09:01;;;;;;;17.55;3.22;;;7.00;99.90;;;;;;5072083;28;20170;-43
2023/01/14 06:11:28;;;;;;;32.50;9.45;;;7.00;99.90;;;;;;5071954;28;20194;-44
2023/01/14 06:13:59;;;;;;;18.58;3.88;;;7.00;99.90;;;;;;5072215;28;20574;-43
2023/01/14 06:16:40;;;;;;;16.40;3.20;;;7.10;99.90;;;;;;5072264;28;20552;-43
2023/01/14 06:19:10;;;;;;;11.15;3.95;;;7.10;99.90;;;;;;5072133;28;20199;-44
2023/01/14 06:21:37;;;;;;;18.20;5.30;;;7.10;99.90;;;;;;5071845;28;20169;-43
2023/01/14 06:24:03;;;;;;;16.45;3.22;;;7.10;99.90;;;;;;5071876;28;20613;-43
2023/01/14 06:26:29;;;;;;;11.52;3.03;;;7.20;99.90;;;;;;5071803;28;20177;-43
2023/01/14 06:28:59;;;;;;;8.55;3.17;;;7.20;99.90;;;;;;5071773;28;20166;-43
2023/01/14 06:31:25;;;;;;;16.58;4.90;;;7.20;99.90;;;;;;5071724;28;20198;-43
2023/01/14 06:33:50;;;;;;;16.55;3.42;;;7.20;99.90;;;;;;5071787;28;20165;-43
2023/01/14 06:36:16;;;;;;;11.70;2.85;;;7.20;99.90;;;;;;5071682;28;20166;-43
2023/01/14 06:38:41;;;;;;;16.23;3.13;;;7.20;99.90;;;;;;5072043;28;20178;-43
2023/01/14 06:41:09;;;;;;;18.10;3.33;;;7.20;99.90;;;;;;5071625;28;20169;-44
2023/01/14 06:43:36;;;;;;;15.77;4.85;;;7.30;99.90;;;;;;5071853;28;20174;-44
2023/01/14 06:46:02;;;;;;;12.95;2.63;;;7.30;99.90;;;;;;5071620;28;20588;-44
2023/01/14 06:48:28;;;;;;;10.75;3.78;;;7.30;99.90;;;;;;5070480;28;20188;-43
2023/01/14 06:50:54;;;;;;;16.92;4.63;;;7.30;99.90;;;;;;5071481;28;20278;-43
2023/01/14 06:53:20;;;;;;;13.98;3.50;;;7.30;99.90;;;;;;5071522;28;20529;-43
2023/01/14 06:55:46;;;;;;;11.70;2.85;;;7.30;99.90;;;;;;5071778;28;20178;-43
2023/01/14 06:58:11;;;;;;;14.35;3.17;;;7.30;99.90;;;;;;5071864;28;20199;-43
2023/01/14 07:00:37;;;;;;;13.48;3.70;;;7.30;99.90;;;;;;5071514;28;20197;-44
2023/01/14 07:03:03;;;;;;;10.23;3.55;;;7.30;99.90;;;;;;5070028;28;20218;-43
2023/01/14 07:05:29;;;;;;;24.48;6.57;;;7.30;99.90;;;;;;5071383;28;20207;-43
2023/01/14 07:07:55;;;;;;;12.50;3.03;;;7.30;99.90;;;;;;5071325;28;20170;-43
2023/01/14 07:10:20;;;;;;;15.65;3.00;;;7.30;99.90;;;;;;5071146;28;20537;-44
2023/01/14 07:12:48;;;;;;;20.27;4.80;;;7.30;99.90;;;;;;5071065;28;20217;-43
2023/01/14 07:15:16;;;;;;;15.05;3.97;;;7.30;99.90;;;;;;5071696;28;20263;-44
2023/01/14 07:17:42;;;;;;;8.57;2.38;;;7.20;99.90;;;;;;5071922;28;20170;-43
2023/01/14 07:20:08;;;;;;;16.13;4.65;;;7.20;99.90;;;;;;5071243;28;20165;-44
2023/01/14 07:22:34;;;;;;;9.75;3.05;;;7.20;99.90;;;;;;5071289;28;20166;-44
2023/01/14 07:25:02;;;;;;;13.45;3.58;;;7.20;99.90;;;;;;5070090;28;20652;-44
2023/01/14 07:27:29;;;;;;;10.30;3.28;;;7.20;99.90;;;;;;5071191;28;20254;-44
2023/01/14 07:29:55;;;;;;;12.05;3.33;;;7.20;99.90;;;;;;5071046;28;20588;-46
2023/01/14 07:32:20;;;;;;;14.52;3.08;;;7.10;99.90;;;;;;5071005;28;20245;-44
2023/01/14 07:34:46;;;;;;;17.00;3.50;;;7.10;99.90;;;;;;5071231;28;20166;-44
2023/01/14 07:37:12;;;;;;;13.30;3.13;;;7.10;99.90;;;;;;5071756;28;20261;-45
2023/01/14 07:39:37;;;;;;;8.65;2.38;;;7.10;99.90;;;;;;5073462;28;20644;-44
2023/01/14 07:42:03;;;;;;;13.10;2.83;;;7.10;99.90;;;;;;5074786;28;20166;-44
2023/01/14 07:44:28;;;;;;;23.73;4.05;;;7.00;99.90;;;;;;5074708;28;20219;-45
2023/01/14 07:46:55;;;;;;;17.25;3.03;;;7.10;99.90;;;;;;5074466;28;20227;-44
2023/01/14 07:49:24;;;;;;;13.57;3.67;;;7.00;99.90;;;;;;5074271;28;20211;-44
2023/01/14 07:51:50;;;;;;;10.50;3.17;;;6.90;99.90;;;;;;5074277;28;20673;-45
2023/01/14 07:54:16;;;;;;;11.35;2.45;;;7.00;99.90;;;;;;5074351;28;20169;-44
2023/01/14 07:56:42;;;;;;;13.30;3.08;;;7.10;99.90;;;;;;5074769;28;20166;-45
2023/01/14 07:59:08;;;;;;;13.38;4.20;;;7.00;99.90;;;;;;5074069;28;20165;-44
2023/01/14 08:01:34;;;;;;;18.23;3.33;;;7.10;99.90;;;;;;5074354;28;20534;-45
2023/01/14 08:04:00;;;;;;;12.95;3.05;;;7.10;99.90;;;;;;5073962;28;20228;-45
2023/01/14 08:06:25;;;;;;;17.15;5.35;;;7.10;99.90;;;;;;5074136;28;20162;-44
2023/01/14 08:08:51;;;;;;;11.70;2.63;;;7.20;99.90;;;;;;5074284;28;20172;-45
2023/01/14 08:11:17;;;;;;;8.93;2.35;;;7.20;99.90;;;;;;5074280;28;20562;-45
2023/01/14 08:13:43;;;;;;;10.32;2.97;;;7.30;99.90;;;;;;5074571;28;20166;-45
2023/01/14 08:16:09;;;;;;;9.43;2.70;;;7.20;99.90;;;;;;5074187;28;20204;-45
2023/01/14 08:18:35;;;;;;;11.57;3.03;;;7.20;99.90;;;;;;5074362;28;20177;-45
2023/01/14 08:21:03;;;;;;;8.07;2.47;;;7.30;99.90;;;;;;5074049;28;20571;-45
2023/01/14 08:23:30;;;;;;;11.48;3.35;;;7.30;99.90;;;;;;5074046;28;20239;-45
2023/01/14 08:26:00;;;;;;;11.13;2.15;;;7.40;99.90;;;;;;5073957;28;20158;-44
2023/01/14 08:28:26;;;;;;;7.78;2.40;;;7.40;99.90;;;;;;5073829;28;20174;-44
2023/01/14 08:31:01;;;;;;;6.43;2.08;;;7.50;99.90;;;;;;5073771;28;20181;-44
2023/01/14 08:33:26;;;;;;;4.18;1.67;;;7.50;99.90;;;;;;5074094;28;20256;-44
2023/01/14 08:35:52;;;;;;;5.75;2.10;;;7.50;99.90;;;;;;5073778;28;20158;-44
2023/01/14 08:38:17;;;;;;;5.32;1.80;;;7.60;99.90;;;;;;5073758;28;20168;-44
2023/01/14 08:40:43;;;;;;;4.82;1.40;;;7.70;99.90;;;;;;5074181;28;20205;-44
2023/01/14 08:43:08;;;;;;;3.28;1.23;;;7.70;99.90;;;;;;5073710;28;20188;-44
2023/01/14 08:45:34;;;;;;;4.00;1.50;;;7.70;99.90;;;;;;5073851;28;20174;-44
2023/01/14 08:48:00;;;;;;;2.05;1.25;;;7.70;99.90;;;;;;5073564;28;20178;-44
2023/01/14 08:50:25;;;;;;;3.20;1.20;;;7.80;99.90;;;;;;5072378;28;20170;-44
2023/01/14 08:52:51;;;;;;;1.35;0.93;;;7.80;99.90;;;;;;5073500;28;20241;-44
2023/01/14 08:55:16;;;;;;;1.92;1.10;;;7.80;99.90;;;;;;5073722;28;20166;-44
2023/01/14 08:57:42;;;;;;;1.80;1.08;;;7.80;99.90;;;;;;5073850;28;20273;-44
2023/01/14 09:00:09;;;;;;;3.72;1.15;;;7.90;99.90;;;;;;5073343;28;20162;-44
2023/01/14 09:02:34;;;;;;;2.05;0.95;;;8.00;99.90;;;;;;5073162;28;20251;-44
2023/01/14 09:05:01;;;;;;;2.80;1.08;;;8.00;99.90;;;;;;5073314;28;20182;-44
2023/01/14 09:18:25;;;;;;;6.65;1.13;;;8.00;99.90;;;;;;5072997;28;20177;-45
2023/01/14 09:20:50;;;;;;;4.88;1.10;;;8.10;99.90;;;;;;5073264;28;20178;-44
2023/01/14 09:23:16;;;;;;;2.08;1.00;;;8.10;99.90;;;;;;5072873;28;20170;-45
2023/01/14 09:25:41;;;;;;;4.55;1.17;;;8.10;99.90;;;;;;5073303;28;20503;-45
2023/01/14 09:28:07;;;;;;;3.28;1.20;;;8.10;99.90;;;;;;5072655;28;20216;-45
2023/01/14 09:30:33;;;;;;;2.58;0.85;;;8.10;99.90;;;;;;5072991;28;20162;-44
2023/01/14 09:32:59;;;;;;;2.40;0.93;;;8.20;99.90;;;;;;5072841;28;20563;-45
2023/01/14 09:35:25;;;;;;;4.03;1.48;;;8.30;99.90;;;;;;5072671;28;20524;-44
2023/01/14 09:37:50;;;;;;;2.40;1.20;;;8.30;99.90;;;;;;5072616;28;20174;-44
2023/01/14 09:40:16;;;;;;;1.23;0.90;;;8.20;99.90;;;;;;5072565;28;20166;-44
2023/01/14 09:42:47;;;;;;;2.08;1.15;;;8.30;99.90;;;;;;5072998;28;20174;-44
2023/01/14 09:45:33;;;;;;;2.85;1.23;;;8.30;99.90;;;;;;5073077;28;20169;-45
2023/01/14 09:48:14;;;;;;;1.65;0.77;;;8.40;99.90;;;;;;5072363;28;20216;-44
2023/01/14 09:50:48;;;;;;;1.35;1.08;;;8.40;99.90;;;;;;5072771;28;20618;-45
2023/01/14 09:53:35;;;;;;;4.93;1.30;;;8.50;99.90;;;;;;5072419;28;20253;-44
2023/01/14 09:56:14;;;;;;;3.28;1.17;;;8.50;99.90;;;;;;5072295;28;20170;-44
2023/01/14 09:59:10;;;;;;;1.25;0.85;;;8.40;99.90;;;;;;5072734;28;20606;-45
2023/01/14 10:01:51;;;;;;;1.23;0.98;;;8.40;99.90;;;;;;5072026;28;20162;-45
2023/01/14 10:04:43;;;;;;;2.55;0.95;;;8.50;99.90;;;;;;5072392;28;20605;-44
2023/01/14 10:07:12;;;;;;;4.30;1.40;;;8.50;99.90;;;;;;5072409;28;20166;-44
2023/01/14 10:09:50;;;;;;;3.15;1.05;;;8.60;99.90;;;;;;5072107;28;20166;-44
2023/01/14 10:12:44;;;;;;;2.47;0.90;;;8.60;99.90;;;;;;5071922;28;20210;-45
2023/01/14 10:15:19;;;;;;;6.32;1.38;;;8.60;99.90;;;;;;5070460;28;20186;-45
2023/01/14 10:17:54;;;;;;;3.75;1.17;;;8.70;99.90;;;;;;5071816;28;20707;-44
2023/01/14 10:20:28;;;;;;;4.57;1.52;;;8.60;99.90;;;;;;5071916;28;20268;-44
2023/01/14 10:23:14;;;;;;;3.58;1.70;;;8.70;99.90;;;;;;5071854;28;20173;-45
2023/01/14 10:25:50;;;;;;;5.10;2.13;;;8.60;99.90;;;;;;5072216;28;20627;-44
2023/01/14 10:28:19;;;;;;;4.80;1.85;;;8.70;99.90;;;;;;5072130;28;20176;-44
2023/01/14 10:30:48;;;;;;;2.35;1.40;;;8.60;99.90;;;;;;5071793;28;20203;-45
2023/01/14 10:33:15;;;;;;;7.30;1.58;;;8.60;99.90;;;;;;5071711;28;20170;-44
2023/01/14 10:35:44;;;;;;;2.25;1.23;;;8.60;99.90;;;;;;5072097;28;20166;-44
2023/01/14 10:38:17;;;;;;;7.95;2.05;;;8.50;99.90;;;;;;5072041;28;20650;-44
2023/01/14 10:40:43;;;;;;;8.23;1.90;;;8.60;99.90;;;;;;5072239;28;20219;-44
2023/01/14 10:43:20;;;;;;;3.30;1.75;;;8.50;99.90;;;;;;5072107;28;20219;-45
2023/01/14 10:45:45;;;;;;;5.63;1.83;;;8.50;99.90;;;;;;5071590;28;20647;-44
2023/01/14 10:48:19;;;;;;;5.13;1.90;;;8.60;99.90;;;;;;5071975;28;20236;-45
2023/01/14 10:50:45;;;;;;;2.45;1.38;;;8.50;99.90;;;;;;5071513;28;20162;-44
2023/01/14 10:53:22;;;;;;;4.25;1.70;;;8.60;99.90;;;;;;5072141;28;20257;-45
2023/01/14 10:55:53;;;;;;;4.00;2.17;;;8.60;99.90;;;;;;5071485;28;20166;-45
2023/01/14 10:58:31;;;;;;;7.53;1.98;;;8.70;99.90;;;;;;5071561;28;20295;-44
2023/01/14 11:01:06;;;;;;;5.93;1.90;;;8.70;99.90;;;;;;5071563;28;20188;-44
2023/01/14 11:03:40;;;;;;;5.82;1.77;;;8.70;99.90;;;;;;5071305;28;20233;-45
2023/01/14 11:06:09;;;;;;;4.07;1.60;;;8.80;99.90;;;;;;5071635;28;20166;-45
2023/01/14 11:08:39;;;;;;;4.13;1.70;;;8.90;99.90;;;;;;5071322;28;20261;-44
2023/01/14 11:11:11;;;;;;;6.05;2.45;;;8.80;99.90;;;;;;5071309;28;20194;-44
2023/01/14 11:13:45;;;;;;;3.90;2.08;;;8.90;99.90;;;;;;5072384;28;20202;-44
2023/01/14 11:16:31;;;;;;;5.55;1.77;;;8.90;99.90;;;;;;5075531;28;20158;-45
2023/01/14 11:19:15;;;;;;;3.53;1.90;;;9.00;99.90;;;;;;5075272;28;20169;-45
2023/01/14 11:21:44;;;;;;;3.75;1.20;;;9.00;99.90;;;;;;5075284;28;20166;-44
2023/01/14 11:24:35;;;;;;;2.97;1.70;;;9.10;99.90;;;;;;5074330;28;20199;-45
2023/01/14 11:27:11;;;;;;;6.40;2.80;;;9.00;99.90;;;;;;5075139;28;20170;-44
2023/01/14 11:30:02;;;;;;;4.38;1.48;;;9.00;99.90;;;;;;5075123;28;20166;-44
2023/01/14 11:32:35;;;;;;;6.78;2.40;;;9.00;99.90;;;;;;5074985;28;20252;-45
2023/01/14 11:35:03;;;;;;;4.60;3.47;;;9.00;99.90;;;;;;5074960;28;20533;-45
2023/01/14 11:37:34;;;;;;;3.83;1.52;;;9.00;99.90;;;;;;5074902;28;20190;-45
2023/01/14 11:40:01;;;;;;;4.53;2.67;;;9.00;99.90;;;;;;5074853;28;20170;-44
2023/01/14 11:42:27;;;;;;;2.03;1.10;;;9.00;99.90;;;;;;5075087;28;20174;-45
2023/01/14 11:45:07;;;;;;;2.70;1.00;;;9.00;99.90;;;;;;5074833;28;20174;-44
2023/01/14 11:47:51;;;;;;;2.85;1.00;;;9.00;99.90;;;;;;5074734;28;20253;-45
2023/01/14 11:50:23;;;;;;;3.35;1.52;;;9.00;99.90;;;;;;5074867;28;20192;-44
2023/01/14 11:53:00;;;;;;;3.65;1.35;;;9.00;99.90;;;;;;5074570;28;20263;-44
2023/01/14 11:55:28;;;;;;;3.35;1.40;;;9.10;99.90;;;;;;5074632;28;20158;-45
2023/01/14 11:57:59;;;;;;;1.80;1.30;;;9.10;99.90;;;;;;5073576;28;20646;-44
2023/01/14 12:00:25;;;;;;;2.15;0.90;;;9.00;99.90;;;;;;5074155;28;20174;-45
2023/01/14 12:02:59;;;;;;;1.00;0.60;;;9.00;99.90;;;;;;5073779;28;20206;-45
2023/01/14 12:05:25;;;;;;;4.30;2.33;;;9.10;99.90;;;;;;5074145;28;20173;-45
2023/01/14 12:08:01;;;;;;;1.98;1.27;;;9.20;99.90;;;;;;5074106;28;20195;-45
2023/01/14 12:10:33;;;;;;;2.03;0.98;;;9.20;99.90;;;;;;5074279;28;20170;-45
2023/01/14 12:18:53;;;;;;;1.10;0.68;;;9.10;99.90;;;;;;5074384;28;20538;-44
2023/01/14 12:21:26;;;;;;;1.80;1.13;;;9.10;99.90;;;;;;5074261;28;20177;-44
2023/01/14 12:24:04;;;;;;;1.42;0.85;;;9.20;99.90;;;;;;5073825;28;20563;-44
2023/01/14 12:26:42;;;;;;;2.72;1.50;;;9.30;99.90;;;;;;5073495;28;20174;-44
2023/01/14 12:29:19;;;;;;;3.75;0.95;;;9.30;99.90;;;;;;5073628;28;20166;-45
2023/01/14 12:31:52;;;;;;;1.25;0.93;;;9.30;99.90;;;;;;5074030;28;20220;-45
2023/01/14 12:34:48;;;;;;;5.65;1.17;;;9.30;99.90;;;;;;5073569;28;20192;-44
2023/01/14 12:37:24;;;;;;;5.18;1.65;;;9.30;99.90;;;;;;5073065;28;20174;-44
2023/01/14 12:45:49;;;;;;;1.80;1.08;;;9.40;99.90;;;;;;5073629;28;20197;-45
2023/01/14 12:48:21;;;;;;;3.15;1.30;;;9.40;99.90;;;;;;5073169;28;20595;-44
2023/01/14 12:51:15;;;;;;;2.95;1.27;;;9.50;99.90;;;;;;5073329;28;20642;-44
2023/01/14 12:53:57;;;;;;;1.38;0.98;;;9.50;99.90;;;;;;5073923;28;20178;-45
2023/01/14 12:56:30;;;;;;;2.13;1.33;;;9.50;99.90;;;;;;5073384;28;20189;-44
2023/01/14 12:59:05;;;;;;;3.25;1.58;;;9.60;99.90;;;;;;5073296;28;20177;-44
2023/01/14 13:01:57;;;;;;;3.30;1.80;;;9.50;99.90;;;;;;5073264;28;20170;-44
2023/01/14 13:04:29;;;;;;;3.33;1.23;;;9.60;99.90;;;;;;5073256;28;20253;-45
2023/01/14 13:07:01;;;;;;;1.83;1.02;;;9.70;99.90;;;;;;5073147;28;20224;-44
2023/01/14 13:09:49;;;;;;;3.28;1.70;;;9.70;99.90;;;;;;5073184;28;20162;-45
2023/01/14 13:12:26;;;;;;;1.95;1.42;;;9.80;99.90;;;;;;5072958;28;20210;-44
2023/01/14 13:15:01;;;;;;;3.13;1.13;;;9.90;99.90;;;;;;5073205;28;20249;-44
2023/01/14 13:17:31;;;;;;;3.50;1.80;;;10.00;99.90;;;;;;5073095;28;20165;-44
2023/01/14 13:19:57;;;;;;;2.55;1.60;;;9.90;99.90;;;;;;5073150;28;20526;-45
2023/01/14 13:22:45;;;;;;;3.10;2.00;;;9.90;99.90;;;;;;5073148;28;20170;-45
2023/01/14 13:25:32;;;;;;;3.53;1.92;;;9.70;99.90;;;;;;5073508;28;20170;-45
2023/01/14 13:27:59;;;;;;;5.28;2.03;;;9.80;99.90;;;;;;5073060;28;20215;-45
2023/01/14 13:30:24;;;;;;;2.33;1.40;;;9.80;99.90;;;;;;5072783;28;20174;-45
2023/01/14 13:32:53;;;;;;;4.10;1.50;;;9.80;99.90;;;;;;5072801;28;20209;-45
2023/01/14 13:35:21;;;;;;;4.50;1.60;;;10.00;99.90;;;;;;5072780;28;20218;-45
2023/01/14 13:37:47;;;;;;;2.95;1.27;;;10.00;99.90;;;;;;5072104;28;20212;-45
2023/01/14 13:40:48;;;;;;;2.47;1.50;;;9.90;99.90;;;;;;5073076;28;20193;-45
2023/01/14 13:43:26;;;;;;;2.13;1.00;;;10.00;99.90;;;;;;5072503;28;20212;-45
2023/01/14 13:45:59;;;;;;;2.03;1.48;;;10.10;99.90;;;;;;5072803;28;20252;-45
2023/01/14 13:48:32;;;;;;;2.17;1.55;;;10.10;99.90;;;;;;5072696;28;20174;-45
2023/01/14 13:51:18;;;;;;;5.72;1.70;;;10.20;99.90;;;;;;5072335;28;20219;-45